createdAt,value
2023-05-13T00:02:15.602Z,98578.28
2023-05-13T00:04:42.414Z,98574.09
2023-05-13T00:07:09.108Z,98574.19
2023-05-13T00:09:38.372Z,98572.25
2023-05-13T00:12:05.494Z,98571.25
2023-05-13T00:14:34.236Z,98570.53
2023-05-13T00:17:04.293Z,98565.47
2023-05-13T00:19:31.762Z,98565.09
2023-05-13T00:21:58.545Z,98570.09
2023-05-13T00:24:26.191Z,98573.28
2023-05-13T00:26:52.843Z,98569.69
2023-05-13T00:29:19.630Z,98582.28
2023-05-13T00:31:46.348Z,98583.59
2023-05-13T00:34:13.084Z,98579.22
2023-05-13T00:36:40.038Z,98565.56
2023-05-13T00:39:06.780Z,98570.31
2023-05-13T00:41:33.441Z,98573.38
2023-05-13T00:44:00.251Z,98578.38
2023-05-13T00:46:31.456Z,98580.66
2023-05-13T00:48:59.195Z,98575.81
2023-05-13T00:51:26.095Z,98578.13
2023-05-13T00:53:52.915Z,98582.00
2023-05-13T00:56:24.368Z,98584.09
2023-05-13T00:58:51.114Z,98592.47
2023-05-13T01:01:34.254Z,98587.50
2023-05-13T01:04:08.958Z,98586.88
2023-05-13T01:07:07.989Z,98585.38
2023-05-13T01:10:07.205Z,98592.72
2023-05-13T01:12:37.929Z,98583.22
2023-05-13T01:15:17.675Z,98582.94
2023-05-13T01:17:55.461Z,98589.81
2023-05-13T01:20:24.156Z,98585.97
2023-05-13T01:22:51.517Z,98600.28
2023-05-13T01:25:18.295Z,98604.25
2023-05-13T01:27:45.987Z,98601.56
2023-05-13T01:30:13.527Z,98598.78
2023-05-13T01:32:40.482Z,98601.56
2023-05-13T01:35:09.210Z,98601.91
2023-05-13T01:37:37.311Z,98590.91
2023-05-13T01:40:20.396Z,98588.63
2023-05-13T01:42:54.833Z,98596.69
2023-05-13T01:45:21.567Z,98604.00
2023-05-13T01:47:48.820Z,98595.50
2023-05-13T01:50:15.675Z,98597.75
2023-05-13T01:52:42.390Z,98594.53
2023-05-13T01:55:10.405Z,98597.97
2023-05-13T01:57:37.141Z,98598.91
2023-05-13T02:00:05.189Z,98596.13
2023-05-13T02:02:31.924Z,98602.69
2023-05-13T02:04:58.680Z,98606.00
2023-05-13T02:07:25.533Z,98607.50
2023-05-13T02:09:55.515Z,98602.41
2023-05-13T02:12:22.030Z,98609.81
2023-05-13T02:14:48.788Z,98602.63
2023-05-13T02:17:16.018Z,98605.53
2023-05-13T02:19:42.732Z,98610.91
2023-05-13T02:22:09.426Z,98606.59
2023-05-13T02:24:40.063Z,98605.16
2023-05-13T02:27:07.801Z,98598.25
2023-05-13T02:29:34.854Z,98605.19
2023-05-13T02:32:01.630Z,98600.22
2023-05-13T02:34:28.350Z,98608.69
2023-05-13T02:36:56.596Z,98604.84
2023-05-13T02:39:23.240Z,98604.41
2023-05-13T02:41:50.030Z,98606.72
2023-05-13T02:44:16.777Z,98605.84
2023-05-13T02:46:44.344Z,98610.25
2023-05-13T02:49:11.436Z,98607.56
2023-05-13T02:51:38.172Z,98610.09
2023-05-13T02:54:06.789Z,98611.78
2023-05-13T02:56:33.485Z,98614.78
2023-05-13T02:59:00.188Z,98624.09
2023-05-13T03:01:27.174Z,98618.91
2023-05-13T03:03:54.490Z,98619.09
2023-05-13T03:06:21.177Z,98621.00
2023-05-13T03:08:47.928Z,98628.22
2023-05-13T03:11:14.620Z,98636.19
2023-05-13T03:13:41.419Z,98633.00
2023-05-13T03:16:08.257Z,98633.19
2023-05-13T03:18:36.463Z,98631.09
2023-05-13T03:21:03.284Z,98634.13
2023-05-13T03:23:30.174Z,98630.34
2023-05-13T03:25:56.925Z,98630.03
2023-05-13T03:28:23.602Z,98629.53
2023-05-13T03:30:51.109Z,98636.34
2023-05-13T03:33:17.802Z,98632.84
2023-05-13T03:35:45.812Z,98639.88
2023-05-13T03:38:12.544Z,98643.00
2023-05-13T03:40:39.277Z,98640.31
2023-05-13T03:43:07.410Z,98643.88
2023-05-13T03:45:34.977Z,98644.22
2023-05-13T03:48:01.809Z,98650.03
2023-05-13T03:50:28.509Z,98657.97
2023-05-13T03:52:56.327Z,98657.47
2023-05-13T03:55:23.013Z,98654.66
2023-05-13T03:57:50.298Z,98651.16
2023-05-13T04:00:17.174Z,98661.19
2023-05-13T04:02:44.104Z,98668.09
2023-05-13T04:05:12.396Z,98660.34
2023-05-13T04:07:39.638Z,98666.81
2023-05-13T04:10:06.846Z,98671.72
2023-05-13T04:12:33.814Z,98671.28
2023-05-13T04:15:01.032Z,98668.34
2023-05-13T04:17:28.958Z,98671.41
2023-05-13T04:19:57.080Z,98673.47
2023-05-13T04:22:24.844Z,98678.72
2023-05-13T04:24:56.626Z,98677.88
2023-05-13T04:27:24.329Z,98676.81
2023-05-13T04:29:51.109Z,98678.72
2023-05-13T04:32:22.008Z,98682.56
2023-05-13T04:34:49.544Z,98685.59
2023-05-13T04:37:16.357Z,98688.09
2023-05-13T04:39:47.018Z,98680.56
2023-05-13T04:42:14.818Z,98689.94
2023-05-13T04:44:41.535Z,98695.75
2023-05-13T04:47:08.318Z,98689.84
2023-05-13T04:49:35.154Z,98694.09
2023-05-13T04:52:04.388Z,98690.75
2023-05-13T04:54:31.135Z,98688.41
2023-05-13T04:56:57.784Z,98692.81
2023-05-13T04:59:24.507Z,98692.91
2023-05-13T05:01:51.374Z,98688.31
2023-05-13T05:04:18.836Z,98694.97
2023-05-13T05:06:45.650Z,98692.72
2023-05-13T05:09:13.515Z,98692.19
2023-05-13T05:11:40.267Z,98698.88
2023-05-13T05:14:06.987Z,98703.63
2023-05-13T05:16:33.717Z,98705.03
2023-05-13T05:19:00.475Z,98723.47
2023-05-13T05:21:27.163Z,98719.91
2023-05-13T05:23:54.019Z,98720.56
2023-05-13T05:26:20.807Z,98717.88
2023-05-13T05:28:47.552Z,98715.72
2023-05-13T05:31:14.507Z,98713.69
2023-05-13T05:33:42.033Z,98714.28
2023-05-13T05:36:09.294Z,98714.47
2023-05-13T05:38:36.090Z,98719.28
2023-05-13T05:41:03.543Z,98719.16
2023-05-13T05:43:30.918Z,98711.66
2023-05-13T05:45:57.929Z,98716.19
2023-05-13T05:48:24.838Z,98720.34
2023-05-13T05:50:52.043Z,98724.44
2023-05-13T05:53:19.497Z,98722.78
2023-05-13T05:55:46.379Z,98711.16
2023-05-13T05:58:16.570Z,98716.66
2023-05-13T06:00:43.523Z,98715.75
2023-05-13T06:03:11.047Z,98721.41
2023-05-13T06:05:39.223Z,98719.94
2023-05-13T06:08:07.082Z,98719.94
2023-05-13T06:10:33.787Z,98721.69
2023-05-13T06:13:00.456Z,98716.44
2023-05-13T06:15:27.287Z,98714.16
2023-05-13T06:17:54.041Z,98721.28
2023-05-13T06:20:20.965Z,98723.47
2023-05-13T06:22:48.317Z,98713.03
2023-05-13T06:25:15.855Z,98719.91
2023-05-13T06:27:45.144Z,98708.00
2023-05-13T06:30:11.991Z,98715.28
2023-05-13T06:32:42.725Z,98712.31
2023-05-13T06:35:14.425Z,98715.16
2023-05-13T06:37:41.476Z,98719.72
2023-05-13T06:40:09.232Z,98705.25
2023-05-13T06:42:40.996Z,98706.25
2023-05-13T06:45:09.625Z,98707.06
2023-05-13T06:47:36.600Z,98708.13
2023-05-13T06:50:04.858Z,98699.56
2023-05-13T06:52:32.109Z,98706.75
2023-05-13T06:55:03.258Z,98714.56
2023-05-13T06:57:41.865Z,98706.06
2023-05-13T07:00:09.891Z,98697.06
2023-05-13T07:02:36.706Z,98700.44
2023-05-13T07:05:04.081Z,98692.84
2023-05-13T07:07:30.922Z,98690.91
2023-05-13T07:09:57.608Z,98694.50
2023-05-13T07:12:24.397Z,98683.47
2023-05-13T07:14:51.122Z,98683.38
2023-05-13T07:17:18.606Z,98680.97
2023-05-13T07:19:45.653Z,98669.28
2023-05-13T07:22:12.337Z,98689.88
2023-05-13T07:24:39.165Z,98673.31
2023-05-13T07:27:06.213Z,98673.78
2023-05-13T07:29:33.929Z,98673.47
2023-05-13T07:32:05.271Z,98682.19
2023-05-13T07:34:32.654Z,98675.56
2023-05-13T07:37:01.969Z,98674.22
2023-05-13T07:39:29.560Z,98670.56
2023-05-13T07:41:57.707Z,98674.31
2023-05-13T07:44:24.961Z,98682.66
2023-05-13T07:46:53.724Z,98675.44
2023-05-13T07:49:21.778Z,98664.41
2023-05-13T07:51:48.719Z,98667.84
2023-05-13T07:54:15.524Z,98674.34
2023-05-13T07:56:44.357Z,98681.13
2023-05-13T07:59:11.160Z,98680.00
2023-05-13T08:01:38.070Z,98672.50
2023-05-13T08:04:04.910Z,98670.72
2023-05-13T08:06:32.778Z,98675.56
2023-05-13T08:08:59.943Z,98682.56
2023-05-13T08:11:26.998Z,98670.81
2023-05-13T08:13:54.827Z,98671.13
2023-05-13T08:16:21.605Z,98691.34
2023-05-13T08:18:48.370Z,98680.84
2023-05-13T08:21:15.788Z,98676.69
2023-05-13T08:23:46.000Z,98685.34
2023-05-13T08:26:13.936Z,98668.09
2023-05-13T08:28:42.745Z,98681.28
2023-05-13T08:31:12.634Z,98677.59
2023-05-13T08:33:42.012Z,98685.56
2023-05-13T08:36:09.406Z,98681.06
2023-05-13T08:38:36.148Z,98678.16
2023-05-13T08:41:10.236Z,98679.16
2023-05-13T08:43:39.862Z,98673.22
2023-05-13T08:46:11.129Z,98685.72
2023-05-13T08:48:42.298Z,98691.31
2023-05-13T08:51:09.966Z,98686.81
2023-05-13T08:53:40.057Z,98689.44
2023-05-13T08:56:08.622Z,98692.00
2023-05-13T08:58:35.738Z,98682.09
2023-05-13T09:01:03.876Z,98678.56
2023-05-13T09:03:31.702Z,98678.66
2023-05-13T09:06:01.944Z,98682.69
2023-05-13T09:08:29.079Z,98669.47
2023-05-13T09:10:56.246Z,98675.50
2023-05-13T09:13:22.996Z,98668.75
2023-05-13T09:15:51.047Z,98658.09
2023-05-13T09:18:19.287Z,98681.78
2023-05-13T09:20:46.761Z,98686.84
2023-05-13T09:23:13.772Z,98681.25
2023-05-13T09:25:42.646Z,98682.69
2023-05-13T09:28:09.457Z,98683.88
2023-05-13T09:30:44.566Z,98681.78
2023-05-13T09:33:15.101Z,98669.22
2023-05-13T09:35:48.768Z,98675.78
2023-05-13T09:38:35.844Z,98687.00
2023-05-13T09:41:03.351Z,98686.41
2023-05-13T09:43:34.071Z,98679.50
2023-05-13T09:46:06.109Z,98674.44
2023-05-13T09:48:34.200Z,98673.94
2023-05-13T09:51:01.974Z,98676.13
2023-05-13T09:53:29.145Z,98678.78
2023-05-13T09:55:57.537Z,98676.00
2023-05-13T09:58:31.428Z,98674.13
2023-05-13T10:00:58.650Z,98679.56
2023-05-13T10:03:25.673Z,98673.22
2023-05-13T10:05:53.912Z,98668.94
2023-05-13T10:08:22.208Z,98664.66
2023-05-13T10:10:50.710Z,98661.69
2023-05-13T10:13:20.691Z,98658.25
2023-05-13T10:15:52.632Z,98663.56
2023-05-13T10:18:21.328Z,98651.34
2023-05-13T10:20:53.474Z,98648.59
2023-05-13T10:23:22.669Z,98654.75
2023-05-13T10:25:50.924Z,98659.97
2023-05-13T10:28:17.850Z,98641.56
2023-05-13T10:30:45.172Z,98676.56
2023-05-13T10:33:12.455Z,98684.44
2023-05-13T10:35:43.473Z,98662.22
2023-05-13T10:38:32.791Z,98665.41
2023-05-13T10:41:22.568Z,98659.44
2023-05-13T10:43:57.775Z,98651.41
2023-05-13T10:46:24.823Z,98670.88
2023-05-13T10:48:57.451Z,98664.50
2023-05-13T10:51:26.464Z,98671.31
2023-05-13T10:53:56.255Z,98670.13
2023-05-13T10:56:24.948Z,98662.56
2023-05-13T10:59:05.720Z,98673.19
2023-05-13T11:01:43.994Z,98671.81
2023-05-13T11:04:18.932Z,98663.03
2023-05-13T11:06:47.579Z,98657.94
2023-05-13T11:09:42.076Z,98668.66
2023-05-13T11:12:15.158Z,98652.78
2023-05-13T11:14:44.833Z,98668.56
2023-05-13T11:17:11.979Z,98659.97
2023-05-13T11:19:46.855Z,98682.50
2023-05-13T11:22:20.814Z,98677.56
2023-05-13T11:25:09.398Z,98671.28
2023-05-13T11:27:41.244Z,98688.25
2023-05-13T11:30:21.517Z,98691.53
2023-05-13T11:32:56.173Z,98696.94
2023-05-13T11:35:33.500Z,98696.59
2023-05-13T11:38:02.448Z,98682.22
2023-05-13T11:40:33.289Z,98679.34
2023-05-13T11:43:01.526Z,98683.31
2023-05-13T11:45:30.273Z,98700.72
2023-05-13T11:47:57.823Z,98686.41
2023-05-13T11:50:30.576Z,98667.91
2023-05-13T11:52:59.393Z,98673.28
2023-05-13T11:55:27.456Z,98672.84
2023-05-13T11:57:54.867Z,98692.41
2023-05-13T12:00:33.048Z,98686.03
2023-05-13T12:03:12.044Z,98664.34
2023-05-13T12:05:44.343Z,98678.22
2023-05-13T12:08:12.276Z,98677.91
2023-05-13T12:10:45.260Z,98681.09
2023-05-13T12:13:12.772Z,98669.97
2023-05-13T12:15:39.917Z,98685.75
2023-05-13T12:18:07.665Z,98676.53
2023-05-13T12:20:34.563Z,98685.63
2023-05-13T12:23:01.739Z,98671.75
2023-05-13T12:25:35.070Z,98669.09
2023-05-13T12:28:26.748Z,98683.81
2023-05-13T12:31:02.376Z,98675.53
2023-05-13T12:33:32.802Z,98674.97
2023-05-13T12:36:25.627Z,98672.72
2023-05-13T12:39:01.059Z,98678.16
2023-05-13T12:41:39.636Z,98669.13
2023-05-13T12:44:15.804Z,98678.47
2023-05-13T12:47:02.396Z,98686.34
2023-05-13T12:49:30.236Z,98675.09
2023-05-13T12:51:57.273Z,98681.38
2023-05-13T12:54:23.998Z,98671.25
2023-05-13T12:56:52.621Z,98657.88
2023-05-13T12:59:20.903Z,98671.13
2023-05-13T13:01:49.997Z,98660.91
2023-05-13T13:04:19.916Z,98664.50
2023-05-13T13:06:46.820Z,98668.66
2023-05-13T13:09:13.653Z,98650.31
2023-05-13T13:11:40.854Z,98643.19
2023-05-13T13:14:09.585Z,98657.91
2023-05-13T13:16:36.606Z,98645.69
2023-05-13T13:19:03.353Z,98640.50
2023-05-13T13:21:30.120Z,98638.91
2023-05-13T13:23:56.803Z,98644.63
2023-05-13T13:26:23.826Z,98647.69
2023-05-13T13:28:50.597Z,98640.94
2023-05-13T13:31:17.382Z,98650.25
2023-05-13T13:33:44.106Z,98654.06
2023-05-13T13:36:11.139Z,98648.16
2023-05-13T13:38:37.816Z,98642.16
2023-05-13T13:41:04.529Z,98650.25
2023-05-13T13:43:31.228Z,98649.22
2023-05-13T13:45:58.071Z,98639.16
2023-05-13T13:48:25.317Z,98647.00
2023-05-13T13:50:53.007Z,98649.31
2023-05-13T13:53:19.835Z,98651.59
2023-05-13T13:55:46.671Z,98644.41
2023-05-13T13:58:14.526Z,98647.16
2023-05-13T14:00:41.255Z,98648.88
2023-05-13T14:03:08.920Z,98650.78
2023-05-13T14:05:36.439Z,98654.38
2023-05-13T14:08:03.370Z,98642.88
2023-05-13T14:10:30.026Z,98645.53
2023-05-13T14:12:56.816Z,98648.97
2023-05-13T14:15:28.725Z,98656.22
2023-05-13T14:17:56.272Z,98653.44
2023-05-13T14:20:24.967Z,98660.06
2023-05-13T14:22:51.703Z,98644.78
2023-05-13T14:25:18.370Z,98659.00
2023-05-13T14:27:45.078Z,98659.00
2023-05-13T14:30:12.088Z,98664.59
2023-05-13T14:32:38.833Z,98654.72
2023-05-13T14:35:07.393Z,98657.34
2023-05-13T14:37:34.079Z,98654.66
2023-05-13T14:40:00.726Z,98665.47
2023-05-13T14:42:27.422Z,98655.19
2023-05-13T14:44:54.096Z,98662.06
2023-05-13T14:47:20.858Z,98671.06
2023-05-13T14:49:47.654Z,98663.19
2023-05-13T14:52:14.285Z,98666.84
2023-05-13T14:54:41.509Z,98680.59
2023-05-13T14:57:08.329Z,98666.38
2023-05-13T14:59:35.132Z,98663.38
2023-05-13T15:02:03.504Z,98665.53
2023-05-13T15:04:30.660Z,98663.94
2023-05-13T15:06:58.314Z,98667.97
2023-05-13T15:09:25.407Z,98662.09
2023-05-13T15:11:52.137Z,98658.22
2023-05-13T15:14:26.167Z,98665.66
2023-05-13T15:16:53.402Z,98656.19
2023-05-13T15:19:20.200Z,98661.03
2023-05-13T15:21:46.918Z,98656.72
2023-05-13T15:24:13.586Z,98663.75
2023-05-13T15:26:40.466Z,98642.25
2023-05-13T15:29:08.741Z,98662.06
2023-05-13T15:31:35.619Z,98663.50
2023-05-13T15:34:03.425Z,98654.06
2023-05-13T15:36:30.104Z,98650.81
2023-05-13T15:38:58.693Z,98660.91
2023-05-13T15:41:25.467Z,98667.94
2023-05-13T15:43:52.263Z,98663.38
2023-05-13T15:46:19.257Z,98671.53
2023-05-13T15:48:46.453Z,98654.50
2023-05-13T15:51:13.853Z,98657.50
2023-05-13T15:53:41.057Z,98664.81
2023-05-13T15:56:07.986Z,98651.34
2023-05-13T15:58:34.765Z,98666.72
2023-05-13T16:01:01.539Z,98658.81
2023-05-13T16:03:28.173Z,98654.22
2023-05-13T16:05:55.462Z,98660.84
2023-05-13T16:08:22.241Z,98664.41
2023-05-13T16:10:49.040Z,98658.81
2023-05-13T16:13:15.729Z,98656.53
2023-05-13T16:15:42.513Z,98653.06
2023-05-13T16:18:09.309Z,98654.50
2023-05-13T16:20:36.055Z,98656.38
2023-05-13T16:23:02.734Z,98651.94
2023-05-13T16:25:29.628Z,98658.66
2023-05-13T16:27:56.768Z,98650.09
2023-05-13T16:30:23.892Z,98653.66
2023-05-13T16:32:53.522Z,98641.34
2023-05-13T16:35:21.087Z,98646.78
2023-05-13T16:37:48.417Z,98641.22
2023-05-13T16:40:15.413Z,98644.34
2023-05-13T16:42:42.241Z,98645.09
2023-05-13T16:45:09.334Z,98641.09
2023-05-13T16:47:36.213Z,98645.38
2023-05-13T16:50:03.687Z,98638.06
2023-05-13T16:52:34.587Z,98645.63
2023-05-13T16:55:01.302Z,98634.63
2023-05-13T16:57:28.011Z,98641.34
2023-05-13T16:59:54.804Z,98631.59
2023-05-13T17:02:21.575Z,98635.31
2023-05-13T17:04:48.466Z,98625.84
2023-05-13T17:07:15.249Z,98637.50
2023-05-13T17:09:41.984Z,98638.78
2023-05-13T17:12:08.825Z,98636.47
2023-05-13T17:14:35.468Z,98642.91
2023-05-13T17:17:03.770Z,98649.50
2023-05-13T17:19:30.903Z,98636.75
2023-05-13T17:21:57.580Z,98641.56
2023-05-13T17:24:24.338Z,98641.44
2023-05-13T17:26:51.126Z,98651.16
2023-05-13T17:29:17.844Z,98638.56
2023-05-13T17:31:44.755Z,98638.56
2023-05-13T17:34:11.700Z,98642.88
2023-05-13T17:36:38.398Z,98647.59
2023-05-13T17:39:05.105Z,98645.59
2023-05-13T17:41:31.825Z,98647.44
2023-05-13T17:43:58.593Z,98642.88
2023-05-13T17:46:25.339Z,98644.88
2023-05-13T17:48:52.678Z,98642.44
2023-05-13T17:51:20.557Z,98636.53
2023-05-13T17:53:47.198Z,98647.94
2023-05-13T17:56:14.054Z,98639.09
2023-05-13T17:58:41.051Z,98646.75
2023-05-13T18:01:08.286Z,98651.16
2023-05-13T18:03:35.667Z,98654.25
2023-05-13T18:06:02.337Z,98653.69
2023-05-13T18:08:29.664Z,98654.81
2023-05-13T18:10:56.366Z,98661.63
2023-05-13T18:13:25.182Z,98657.59
2023-05-13T18:15:51.985Z,98658.00
2023-05-13T18:18:21.577Z,98664.22
2023-05-13T18:20:48.277Z,98667.59
2023-05-13T18:23:15.745Z,98659.72
2023-05-13T18:25:54.703Z,98667.97
2023-05-13T18:28:22.733Z,98669.06
2023-05-13T18:30:49.481Z,98666.03
2023-05-13T18:33:16.605Z,98673.56
2023-05-13T18:35:44.031Z,98679.22
2023-05-13T18:38:10.850Z,98674.81
2023-05-13T18:40:38.251Z,98690.22
2023-05-13T18:43:05.006Z,98690.22
2023-05-13T18:45:31.758Z,98685.66
2023-05-13T18:47:58.712Z,98687.50
2023-05-13T18:50:25.574Z,98678.66
2023-05-13T18:52:54.105Z,98686.06
2023-05-13T18:55:21.496Z,98687.44
2023-05-13T18:57:49.400Z,98687.81
2023-05-13T19:00:16.858Z,98689.06
2023-05-13T19:02:43.761Z,98689.28
2023-05-13T19:05:10.689Z,98694.78
2023-05-13T19:07:37.602Z,98693.06
2023-05-13T19:10:04.547Z,98693.81
2023-05-13T19:12:31.322Z,98699.88
2023-05-13T19:14:57.996Z,98695.56
2023-05-13T19:17:25.854Z,98699.66
2023-05-13T19:19:52.866Z,98700.50
2023-05-13T19:22:19.513Z,98700.34
2023-05-13T19:24:48.179Z,98707.13
2023-05-13T19:27:18.104Z,98700.13
2023-05-13T19:29:47.742Z,98704.56
2023-05-13T19:32:15.005Z,98704.91
2023-05-13T19:34:43.281Z,98705.53
2023-05-13T19:37:10.160Z,98701.47
2023-05-13T19:39:36.944Z,98704.66
2023-05-13T19:42:03.733Z,98702.47
2023-05-13T19:44:31.957Z,98714.22
2023-05-13T19:46:58.786Z,98708.56
2023-05-13T19:49:26.076Z,98708.69
2023-05-13T19:51:53.164Z,98713.72
2023-05-13T19:54:20.648Z,98703.50
2023-05-13T19:56:49.166Z,98707.41
2023-05-13T19:59:15.891Z,98716.88
2023-05-13T20:01:42.908Z,98709.97
2023-05-13T20:04:10.093Z,98694.00
2023-05-13T20:06:39.264Z,98704.91
2023-05-13T20:09:06.983Z,98703.44
2023-05-13T20:11:33.800Z,98697.28
2023-05-13T20:14:00.503Z,98706.59
2023-05-13T20:16:27.250Z,98704.97
2023-05-13T20:19:05.771Z,98699.81
2023-05-13T20:21:32.534Z,98698.97
2023-05-13T20:24:00.094Z,98706.19
2023-05-13T20:26:28.146Z,98698.41
2023-05-13T20:28:54.945Z,98701.34
2023-05-13T20:31:21.692Z,98699.00
2023-05-13T20:33:48.433Z,98694.81
2023-05-13T20:36:15.292Z,98693.31
2023-05-13T20:38:41.986Z,98687.03
2023-05-13T20:41:08.713Z,98687.28
2023-05-13T20:43:37.598Z,98685.91
2023-05-13T20:46:09.333Z,98696.06
2023-05-13T20:48:38.874Z,98694.47
2023-05-13T20:51:06.346Z,98687.56
2023-05-13T20:53:37.987Z,98690.63
2023-05-13T20:56:05.005Z,98693.66
2023-05-13T20:58:32.301Z,98689.34
2023-05-13T21:00:59.040Z,98689.59
2023-05-13T21:03:26.045Z,98692.28
2023-05-13T21:05:52.760Z,98680.00
2023-05-13T21:08:19.511Z,98689.16
2023-05-13T21:10:47.256Z,98685.97
2023-05-13T21:13:14.230Z,98683.38
2023-05-13T21:15:41.100Z,98683.47
2023-05-13T21:18:08.555Z,98682.94
2023-05-13T21:20:35.752Z,98679.59
2023-05-13T21:23:02.490Z,98680.06
2023-05-13T21:25:29.372Z,98691.19
2023-05-13T21:27:57.331Z,98685.16
2023-05-13T21:30:25.003Z,98683.41
2023-05-13T21:32:52.081Z,98680.06
2023-05-13T21:35:19.456Z,98682.91
2023-05-13T21:37:47.449Z,98677.84
2023-05-13T21:40:14.868Z,98684.31
2023-05-13T21:42:41.598Z,98683.34
2023-05-13T21:45:08.957Z,98688.41
2023-05-13T21:47:35.764Z,98685.06
2023-05-13T21:50:03.025Z,98684.13
2023-05-13T21:52:29.765Z,98677.19
2023-05-13T21:54:56.657Z,98673.25
2023-05-13T21:57:23.341Z,98674.63
2023-05-13T21:59:50.094Z,98676.59
2023-05-13T22:02:16.922Z,98671.41
2023-05-13T22:04:43.716Z,98677.03
2023-05-13T22:07:10.438Z,98672.91
2023-05-13T22:09:37.411Z,98676.78
2023-05-13T22:12:04.426Z,98673.44
2023-05-13T22:14:31.403Z,98664.47
2023-05-13T22:17:08.384Z,98676.25
2023-05-13T22:19:36.987Z,98673.75
2023-05-13T22:22:03.810Z,98667.50
2023-05-13T22:24:30.998Z,98674.84
2023-05-13T22:26:59.113Z,98671.59
2023-05-13T22:29:26.304Z,98670.94
2023-05-13T22:31:53.069Z,98667.72
2023-05-13T22:34:19.817Z,98663.19
2023-05-13T22:36:46.530Z,98663.50
2023-05-13T22:39:14.509Z,98661.47
2023-05-13T22:41:41.353Z,98659.75
2023-05-13T22:44:08.061Z,98658.97
2023-05-13T22:46:34.798Z,98657.16
2023-05-13T22:49:01.583Z,98656.72
2023-05-13T22:51:28.297Z,98665.13
2023-05-13T22:53:54.994Z,98665.78
2023-05-13T22:56:22.006Z,98666.31
2023-05-13T22:58:48.735Z,98664.78
2023-05-13T23:01:15.531Z,98661.66
2023-05-13T23:03:42.317Z,98665.75
2023-05-13T23:06:10.526Z,98665.09
2023-05-13T23:08:37.885Z,98658.84
2023-05-13T23:11:04.807Z,98668.22
2023-05-13T23:13:31.571Z,98658.00
2023-05-13T23:15:58.354Z,98657.03
2023-05-13T23:18:25.184Z,98658.66
2023-05-13T23:20:55.939Z,98645.63
2023-05-13T23:23:23.213Z,98649.03
2023-05-13T23:25:50.357Z,98645.28
2023-05-13T23:28:17.412Z,98647.59
2023-05-13T23:30:44.194Z,98648.00
2023-05-13T23:33:11.099Z,98638.53
2023-05-13T23:35:38.106Z,98643.25
2023-05-13T23:38:04.892Z,98641.19
2023-05-13T23:40:31.586Z,98640.72
2023-05-13T23:42:58.324Z,98640.38
2023-05-13T23:45:25.013Z,98638.19
2023-05-13T23:47:51.953Z,98631.47
2023-05-13T23:50:18.709Z,98638.47
2023-05-13T23:52:45.588Z,98629.16
2023-05-13T23:55:12.450Z,98631.34
2023-05-13T23:57:39.147Z,98622.31
